Time;durP1;ratioP1;P1;durP2;ratioP2;P2;SDS_P1;SDS_P2;PMS_P1;PMS_P2;Temp;Humidity;BMP_temperature;BMP_pressure;BME280_temperature;BME280_humidity;BME280_pressure;Samples;Min_cycle;Max_cycle;Signal;HPM_P1;HPM_P2
2022/11/30 00:01:52;;;;;;;17.45;6.95;;;;;;;;;;8265151;28;20074;-85
2022/11/30 00:05:54;;;;;;;29.90;14.48;;;;;;;;;;8261136;28;20062;-84
2022/11/30 00:09:57;;;;;;;30.67;13.43;;;;;;;;;;8264663;28;20113;-86
2022/11/30 00:13:59;;;;;;;35.25;13.43;;;;;;;;;;8256378;28;20375;-87
2022/11/30 00:18:04;;;;;;;32.35;14.35;;;;;;;;;;8264342;28;20061;-85
2022/11/30 00:22:06;;;;;;;35.10;14.10;;;;;;;;;;8260122;28;20043;-85
2022/11/30 00:26:11;;;;;;;36.78;16.23;;;;;;;;;;8437004;23;20058;-84
2022/11/30 00:30:15;;;;;;;38.03;17.20;;;;;;;;;;8291770;28;20046;-84
2022/11/30 00:34:19;;;;;;;32.30;13.75;;;;;;;;;;8292250;28;20121;-87
2022/11/30 00:38:21;;;;;;;37.90;15.90;;;;;;;;;;8289480;28;20049;-86
2022/11/30 00:42:24;;;;;;;33.90;15.77;;;;;;;;;;8296410;28;20041;-89
2022/11/30 00:46:26;;;;;;;20.10;9.48;;;;;;;;;;8283623;28;20405;-89
2022/11/30 00:50:31;;;;;;;20.95;9.20;;;;;;;;;;8289306;28;20141;-83
2022/11/30 00:54:33;;;;;;;26.67;12.48;;;;;;;;;;8295372;28;20045;-84
2022/11/30 00:58:36;;;;;;;41.20;14.32;;;;;;;;;;8294607;28;20046;-87
2022/11/30 01:02:38;;;;;;;33.78;15.32;;;;;;;;;;8291449;28;20046;-89
2022/11/30 01:06:43;;;;;;;29.92;13.80;;;;;;;;;;8287827;28;20135;-88
2022/11/30 01:10:48;;;;;;;21.58;10.07;;;;;;;;;;8295108;28;20408;-89
2022/11/30 01:14:51;;;;;;;30.27;14.48;;;;;;;;;;8295939;28;20049;-84
2022/11/30 01:18:54;;;;;;;33.22;13.60;;;;;;;;;;8296799;28;20053;-86
2022/11/30 01:22:58;;;;;;;37.08;15.63;;;;;;;;;;8296454;28;20056;-89
2022/11/30 01:27:01;;;;;;;34.35;13.13;;;;;;;;;;8296046;28;20122;-88
2022/11/30 01:31:05;;;;;;;22.50;10.10;;;;;;;;;;8295466;28;20046;-87
2022/11/30 01:35:09;;;;;;;37.00;15.73;;;;;;;;;;8296147;28;20547;-87
2022/11/30 01:39:13;;;;;;;30.50;14.10;;;;;;;;;;8296036;28;20125;-86
2022/11/30 01:43:16;;;;;;;35.28;13.68;;;;;;;;;;8295824;28;20543;-87
2022/11/30 01:47:20;;;;;;;26.08;12.00;;;;;;;;;;8295779;28;20053;-88
2022/11/30 01:51:23;;;;;;;34.08;14.18;;;;;;;;;;8282406;28;20092;-88
2022/11/30 01:55:32;;;;;;;26.95;12.98;;;;;;;;;;8296302;28;20119;-88
2022/11/30 01:59:35;;;;;;;28.30;13.13;;;;;;;;;;8295804;28;20096;-85
2022/11/30 02:03:43;;;;;;;29.08;12.85;;;;;;;;;;8295882;28;20132;-84
2022/11/30 02:07:46;;;;;;;36.17;15.13;;;;;;;;;;8297531;28;20038;-85
2022/11/30 02:11:50;;;;;;;18.08;8.13;;;;;;;;;;8301469;28;20042;-87
2022/11/30 02:16:06;;;;;;;32.92;12.85;;;;;;;;;;8301504;28;20125;-87
2022/11/30 02:20:45;;;;;;;28.52;12.68;;;;;;;;;;8301303;28;20042;-87
2022/11/30 02:24:59;;;;;;;36.80;14.40;;;;;;;;;;8301602;28;20463;-86
2022/11/30 02:29:13;;;;;;;34.90;15.52;;;;;;;;;;8301609;28;20069;-87
2022/11/30 02:33:19;;;;;;;37.33;14.70;;;;;;;;;;8283852;28;20052;-87
2022/11/30 02:37:23;;;;;;;40.72;15.63;;;;;;;;;;8299388;28;20092;-87
2022/11/30 02:41:26;;;;;;;31.42;14.02;;;;;;;;;;8291715;28;20050;-87
2022/11/30 02:45:35;;;;;;;30.20;13.43;;;;;;;;;;8300440;28;20092;-87
2022/11/30 02:49:48;;;;;;;38.55;14.80;;;;;;;;;;8300952;28;20595;-85
2022/11/30 02:53:51;;;;;;;29.52;13.05;;;;;;;;;;8300571;28;20397;-87
2022/11/30 02:57:53;;;;;;;21.40;10.63;;;;;;;;;;8300049;28;20054;-87
2022/11/30 03:01:57;;;;;;;30.63;13.85;;;;;;;;;;8299910;28;20061;-87
2022/11/30 03:06:00;;;;;;;32.40;13.55;;;;;;;;;;8299820;28;20060;-85
2022/11/30 03:10:03;;;;;;;30.42;12.93;;;;;;;;;;8299759;28;20049;-85
2022/11/30 03:14:06;;;;;;;29.48;13.02;;;;;;;;;;8299574;28;20038;-87
2022/11/30 03:18:10;;;;;;;31.27;12.88;;;;;;;;;;8298912;28;20050;-88
2022/11/30 03:22:12;;;;;;;30.95;13.63;;;;;;;;;;8299397;28;20507;-84
2022/11/30 03:26:15;;;;;;;27.73;11.73;;;;;;;;;;8298919;28;20081;-86
2022/11/30 03:30:18;;;;;;;31.45;13.05;;;;;;;;;;8299004;28;20050;-85
2022/11/30 03:34:25;;;;;;;26.02;12.20;;;;;;;;;;8299134;28;20134;-85
2022/11/30 03:38:28;;;;;;;29.92;12.73;;;;;;;;;;8299426;28;20487;-86
2022/11/30 03:42:30;;;;;;;27.25;12.90;;;;;;;;;;8298693;28;20052;-85
2022/11/30 03:46:33;;;;;;;31.80;16.55;;;;;;;;;;8298594;28;20129;-86
2022/11/30 03:50:37;;;;;;;28.77;13.68;;;;;;;;;;8298379;28;20061;-85
2022/11/30 03:54:40;;;;;;;30.25;13.02;;;;;;;;;;8298522;28;20045;-85
2022/11/30 03:58:43;;;;;;;25.38;11.05;;;;;;;;;;8298140;28;20111;-86
2022/11/30 04:02:45;;;;;;;38.22;15.52;;;;;;;;;;8298065;28;20046;-87
2022/11/30 04:06:49;;;;;;;43.78;21.90;;;;;;;;;;8298355;28;20093;-86
2022/11/30 04:10:53;;;;;;;12.40;6.78;;;;;;;;;;8297972;28;20455;-86
2022/11/30 04:14:55;;;;;;;30.20;13.43;;;;;;;;;;8298206;28;20200;-87
2022/11/30 04:18:58;;;;;;;24.15;11.88;;;;;;;;;;8297763;28;20046;-86
2022/11/30 04:23:02;;;;;;;29.02;13.32;;;;;;;;;;8297633;28;20058;-87
2022/11/30 04:27:04;;;;;;;23.35;10.15;;;;;;;;;;8295462;28;20050;-87
2022/11/30 04:31:07;;;;;;;32.03;14.00;;;;;;;;;;8296614;28;20108;-85
2022/11/30 04:35:11;;;;;;;16.25;6.30;;;;;;;;;;8297009;28;20050;-86
2022/11/30 04:39:15;;;;;;;24.98;11.85;;;;;;;;;;8297215;28;20049;-87
2022/11/30 04:43:18;;;;;;;30.67;14.65;;;;;;;;;;8297033;28;20492;-87
2022/11/30 04:47:20;;;;;;;27.48;15.75;;;;;;;;;;8296832;28;20046;-88
2022/11/30 04:51:23;;;;;;;28.45;12.70;;;;;;;;;;8297290;28;20452;-87
2022/11/30 04:55:27;;;;;;;29.75;12.40;;;;;;;;;;8297228;28;20119;-87
2022/11/30 04:59:29;;;;;;;34.80;14.00;;;;;;;;;;8286095;28;20459;-87
2022/11/30 05:03:32;;;;;;;40.63;14.75;;;;;;;;;;8294321;28;20504;-88
2022/11/30 05:07:34;;;;;;;28.77;13.48;;;;;;;;;;8278547;28;20043;-89
2022/11/30 05:11:38;;;;;;;16.35;7.38;;;;;;;;;;8266205;28;20042;-88
2022/11/30 05:15:41;;;;;;;16.27;7.57;;;;;;;;;;8277713;28;20050;-89
2022/11/30 05:19:43;;;;;;;23.73;11.52;;;;;;;;;;8269799;28;20046;-85
2022/11/30 05:23:47;;;;;;;29.92;15.48;;;;;;;;;;8282853;28;20049;-87
2022/11/30 05:27:51;;;;;;;22.38;12.05;;;;;;;;;;8282555;28;20052;-87
2022/11/30 05:31:54;;;;;;;23.63;11.60;;;;;;;;;;8296393;28;20052;-88
2022/11/30 05:35:56;;;;;;;26.35;12.73;;;;;;;;;;8295927;28;20042;-85
2022/11/30 05:39:59;;;;;;;30.95;14.57;;;;;;;;;;8294791;28;20042;-86
2022/11/30 05:44:03;;;;;;;31.88;11.55;;;;;;;;;;8301189;28;20536;-87
2022/11/30 05:48:06;;;;;;;32.55;14.85;;;;;;;;;;8298036;28;20714;-83
2022/11/30 05:52:09;;;;;;;15.18;7.45;;;;;;;;;;8302167;28;20073;-86
2022/11/30 05:56:15;;;;;;;78.03;20.80;;;;;;;;;;8301524;28;20492;-86
2022/11/30 06:00:20;;;;;;;115.22;44.08;;;;;;;;;;8300705;28;20076;-85
2022/11/30 06:04:23;;;;;;;150.43;37.30;;;;;;;;;;8302116;28;20484;-83
2022/11/30 06:08:27;;;;;;;87.05;24.38;;;;;;;;;;8294293;28;20050;-84
2022/11/30 06:12:29;;;;;;;35.17;16.17;;;;;;;;;;8300342;28;20128;-83
2022/11/30 06:16:33;;;;;;;291.52;187.88;;;;;;;;;;8296549;28;20092;-87
2022/11/30 06:20:36;;;;;;;28.98;16.45;;;;;;;;;;8278463;28;20042;-87
2022/11/30 06:24:39;;;;;;;79.55;51.15;;;;;;;;;;8273998;28;20050;-85
2022/11/30 06:28:42;;;;;;;63.58;30.95;;;;;;;;;;8292322;28;20054;-87
2022/11/30 06:32:47;;;;;;;35.28;22.35;;;;;;;;;;8299840;28;20508;-86
2022/11/30 06:36:50;;;;;;;46.72;25.50;;;;;;;;;;8295975;28;20117;-87
2022/11/30 06:40:52;;;;;;;19.88;8.82;;;;;;;;;;8285162;28;20038;-87
2022/11/30 06:44:55;;;;;;;50.38;20.98;;;;;;;;;;8297904;28;20046;-87
2022/11/30 06:48:59;;;;;;;24.55;11.18;;;;;;;;;;8300763;28;20046;-86
2022/11/30 06:53:02;;;;;;;47.28;22.67;;;;;;;;;;8286852;28;20845;-87
2022/11/30 06:57:05;;;;;;;42.45;17.27;;;;;;;;;;8291653;28;20104;-87
2022/11/30 07:01:09;;;;;;;35.95;16.92;;;;;;;;;;8269131;28;20057;-82
2022/11/30 07:05:13;;;;;;;25.75;11.18;;;;;;;;;;8294352;28;20116;-87
2022/11/30 07:09:23;;;;;;;13.02;6.85;;;;;;;;;;8289392;28;20077;-87
2022/11/30 07:13:26;;;;;;;22.05;11.70;;;;;;;;;;8281731;28;20050;-86
2022/11/30 07:17:29;;;;;;;20.10;11.45;;;;;;;;;;8281791;28;20056;-87
2022/11/30 07:21:34;;;;;;;22.90;10.73;;;;;;;;;;8275962;28;20082;-88
2022/11/30 07:29:57;;;;;;;36.55;18.75;;;;;;;;;;8283744;28;20042;-86
2022/11/30 07:34:08;;;;;;;12.18;8.10;;;;;;;;;;8289871;28;20132;-87
2022/11/30 07:38:16;;;;;;;30.95;14.43;;;;;;;;;;8286291;28;20038;-87
2022/11/30 07:42:21;;;;;;;24.20;12.80;;;;;;;;;;8281276;28;20700;-86
2022/11/30 07:46:27;;;;;;;61.30;29.60;;;;;;;;;;8289038;28;20057;-89
2022/11/30 07:50:30;;;;;;;32.08;15.63;;;;;;;;;;8263928;28;20050;-87
2022/11/30 07:54:34;;;;;;;55.28;33.72;;;;;;;;;;8273534;28;20058;-86
2022/11/30 07:58:39;;;;;;;60.45;33.03;;;;;;;;;;8280653;28;20121;-88
2022/11/30 08:02:42;;;;;;;56.85;23.60;;;;;;;;;;8280096;28;20191;-86
2022/11/30 08:06:45;;;;;;;49.03;21.67;;;;;;;;;;8285601;28;20050;-88
2022/11/30 08:10:49;;;;;;;55.00;34.47;;;;;;;;;;8276593;28;20130;-88
2022/11/30 08:14:52;;;;;;;91.53;27.48;;;;;;;;;;8276593;28;20057;-87
2022/11/30 08:18:58;;;;;;;45.08;20.27;;;;;;;;;;8283334;28;20045;-89
2022/11/30 08:23:04;;;;;;;52.45;32.45;;;;;;;;;;8293432;28;20111;-89
2022/11/30 08:27:11;;;;;;;56.35;25.77;;;;;;;;;;8290194;28;20054;-87
2022/11/30 08:31:16;;;;;;;37.10;19.35;;;;;;;;;;8269523;28;20046;-87
2022/11/30 08:35:18;;;;;;;26.63;11.10;;;;;;;;;;8289910;28;20049;-90
2022/11/30 08:39:21;;;;;;;101.43;31.75;;;;;;;;;;8282298;28;20443;-87
2022/11/30 08:43:26;;;;;;;35.55;18.33;;;;;;;;;;8285936;28;20042;-88
2022/11/30 08:47:34;;;;;;;26.95;13.23;;;;;;;;;;8279634;28;20053;-89
2022/11/30 08:51:47;;;;;;;36.80;14.48;;;;;;;;;;8281976;28;20144;-91
2022/11/30 08:56:02;;;;;;;33.05;14.68;;;;;;;;;;8277220;28;20045;-92
2022/11/30 09:00:18;;;;;;;27.48;12.88;;;;;;;;;;8283781;28;20153;-89
2022/11/30 09:04:25;;;;;;;33.97;14.35;;;;;;;;;;8287710;28;20125;-89
2022/11/30 09:08:35;;;;;;;24.42;13.10;;;;;;;;;;8292627;28;20054;-85
2022/11/30 09:12:40;;;;;;;22.00;12.02;;;;;;;;;;8282141;28;20464;-89
2022/11/30 09:16:44;;;;;;;29.23;14.38;;;;;;;;;;8263135;28;20584;-89
2022/11/30 09:20:53;;;;;;;27.40;13.02;;;;;;;;;;8290456;28;20620;-88
2022/11/30 09:25:08;;;;;;;26.15;13.40;;;;;;;;;;8283464;28;20053;-90
2022/11/30 09:29:18;;;;;;;26.15;11.88;;;;;;;;;;8279478;28;20467;-91
2022/11/30 09:33:23;;;;;;;50.05;22.35;;;;;;;;;;8294891;28;20124;-86
2022/11/30 09:37:29;;;;;;;12.20;5.88;;;;;;;;;;8274315;28;20516;-90
2022/11/30 09:42:10;;;;;;;27.40;13.55;;;;;;;;;;8299657;28;20974;-90
2022/11/30 09:46:46;;;;;;;17.65;8.10;;;;;;;;;;8258495;28;20505;-91
2022/11/30 09:51:05;;;;;;;34.92;15.55;;;;;;;;;;8286241;28;22228;-88
2022/11/30 09:55:16;;;;;;;50.95;22.08;;;;;;;;;;8297878;28;20057;-90
2022/11/30 09:59:24;;;;;;;;;;;;;;;;;;8298331;28;20050;-89
2022/11/30 10:03:36;;;;;;;70.97;24.92;;;;;;;;;;8280697;28;19926;-89
2022/11/30 10:08:16;;;;;;;13.27;7.32;;;;;;;;;;8289766;28;20128;-90
2022/11/30 10:12:33;;;;;;;19.15;8.68;;;;;;;;;;8279078;28;20188;-92
2022/11/30 10:16:55;;;;;;;27.15;9.88;;;;;;;;;;8275922;28;20053;-88
2022/11/30 10:21:33;;;;;;;58.72;17.83;;;;;;;;;;8298623;28;20046;-90
2022/11/30 10:25:59;;;;;;;31.02;14.32;;;;;;;;;;8285888;28;20057;-89
2022/11/30 10:30:47;;;;;;;64.38;21.27;;;;;;;;;;8294747;28;20470;-91
2022/11/30 10:35:22;;;;;;;46.35;19.77;;;;;;;;;;8285379;28;20493;-91
2022/11/30 10:39:44;;;;;;;;;;;;;;;;;;8285012;28;20096;-90
2022/11/30 10:43:58;;;;;;;14.80;7.45;;;;;;;;;;8292804;28;20018;-91
2022/11/30 10:48:16;;;;;;;25.52;12.40;;;;;;;;;;8298474;28;20064;-92
2022/11/30 10:52:42;;;;;;;33.45;18.00;;;;;;;;;;8278497;28;20049;-92
2022/11/30 10:57:09;;;;;;;28.85;14.68;;;;;;;;;;8291555;28;20087;-90
2022/11/30 11:01:30;;;;;;;59.03;24.42;;;;;;;;;;8271457;28;20050;-89
2022/11/30 11:05:35;;;;;;;31.83;16.85;;;;;;;;;;8292356;28;20521;-87
2022/11/30 11:09:41;;;;;;;36.72;15.38;;;;;;;;;;8291723;28;20496;-87
2022/11/30 11:13:44;;;;;;;77.00;26.00;;;;;;;;;;8283808;28;20042;-88
2022/11/30 11:17:47;;;;;;;28.58;14.15;;;;;;;;;;8291709;28;20100;-85
2022/11/30 11:21:55;;;;;;;35.70;16.30;;;;;;;;;;8283281;28;20043;-85
2022/11/30 11:25:58;;;;;;;21.88;11.38;;;;;;;;;;8285237;28;20079;-85
2022/11/30 11:30:08;;;;;;;31.80;13.10;;;;;;;;;;8287992;28;20100;-88
2022/11/30 11:34:25;;;;;;;29.85;13.40;;;;;;;;;;8283895;28;20042;-89
2022/11/30 11:38:39;;;;;;;20.60;12.07;;;;;;;;;;8279087;28;20054;-89
2022/11/30 11:42:47;;;;;;;26.33;11.82;;;;;;;;;;8285537;28;20073;-89
2022/11/30 11:46:56;;;;;;;18.80;10.02;;;;;;;;;;8285336;28;20121;-88
2022/11/30 11:51:01;;;;;;;16.63;9.13;;;;;;;;;;8288959;28;20058;-89
2022/11/30 11:55:14;;;;;;;14.60;7.78;;;;;;;;;;8285069;28;20049;-88
2022/11/30 11:59:23;;;;;;;17.65;8.82;;;;;;;;;;8284206;28;20483;-88
2022/11/30 12:03:35;;;;;;;15.48;6.78;;;;;;;;;;8280539;28;20076;-90
2022/11/30 12:07:50;;;;;;;21.65;9.65;;;;;;;;;;8292817;28;20042;-89
2022/11/30 12:11:55;;;;;;;27.70;17.80;;;;;;;;;;8293362;28;20108;-87
2022/11/30 12:16:14;;;;;;;48.22;21.52;;;;;;;;;;8283493;28;20042;-87
2022/11/30 12:20:30;;;;;;;24.63;12.45;;;;;;;;;;8293732;28;20038;-90
2022/11/30 12:24:52;;;;;;;20.27;10.52;;;;;;;;;;8273463;28;20496;-86
2022/11/30 12:29:18;;;;;;;23.50;12.00;;;;;;;;;;8281304;28;20065;-89
2022/11/30 12:33:38;;;;;;;24.92;11.55;;;;;;;;;;8277070;28;20640;-88
2022/11/30 12:37:53;;;;;;;23.85;12.85;;;;;;;;;;8277691;28;20050;-87
2022/11/30 12:42:04;;;;;;;27.27;13.13;;;;;;;;;;8292632;28;20485;-87
2022/11/30 12:46:18;;;;;;;18.73;8.15;;;;;;;;;;8288158;28;20095;-90
2022/11/30 12:50:37;;;;;;;19.85;10.07;;;;;;;;;;8292835;28;20060;-88
2022/11/30 12:54:49;;;;;;;26.52;13.30;;;;;;;;;;8292975;28;20132;-89
2022/11/30 12:58:57;;;;;;;;;;;;;;;;;;8287623;28;20161;-88
2022/11/30 13:03:18;;;;;;;20.90;10.15;;;;;;;;;;8288524;28;20008;-88
2022/11/30 13:07:25;;;;;;;26.27;13.05;;;;;;;;;;8280102;28;20053;-89
2022/11/30 13:11:34;;;;;;;31.17;13.32;;;;;;;;;;8281444;28;20092;-88
2022/11/30 13:15:39;;;;;;;26.42;12.55;;;;;;;;;;8282859;28;20042;-86
2022/11/30 13:19:53;;;;;;;25.42;12.55;;;;;;;;;;8286919;28;20748;-87
2022/11/30 13:24:07;;;;;;;27.58;13.38;;;;;;;;;;8274060;28;20042;-87
2022/11/30 13:28:21;;;;;;;17.48;7.85;;;;;;;;;;8286599;28;20062;-86
2022/11/30 13:32:24;;;;;;;21.48;10.68;;;;;;;;;;8277342;28;20042;-88
2022/11/30 13:36:43;;;;;;;28.13;12.18;;;;;;;;;;8267049;28;20085;-90
2022/11/30 13:41:02;;;;;;;25.40;12.05;;;;;;;;;;8287356;28;20106;-88
2022/11/30 13:45:19;;;;;;;25.20;12.75;;;;;;;;;;8272509;28;20049;-90
2022/11/30 13:49:26;;;;;;;28.83;12.43;;;;;;;;;;8289827;28;20049;-89
2022/11/30 13:53:36;;;;;;;23.38;10.77;;;;;;;;;;8282784;28;20061;-88
2022/11/30 13:58:12;;;;;;;25.67;11.88;;;;;;;;;;8270821;28;20091;-88
2022/11/30 14:02:58;;;;;;;17.67;7.97;;;;;;;;;;8187035;28;20079;-86
2022/11/30 14:07:00;;;;;;;27.65;13.77;;;;;;;;;;8194717;29;20114;-88
2022/11/30 14:11:48;;;;;;;27.85;13.20;;;;;;;;;;8197137;29;20055;-88
2022/11/30 14:15:55;;;;;;;22.73;10.80;;;;;;;;;;8196925;29;20106;-90
2022/11/30 14:20:00;;;;;;;35.13;15.55;;;;;;;;;;8196418;29;20079;-86
2022/11/30 14:24:14;;;;;;;35.08;15.85;;;;;;;;;;8196011;29;20069;-87
2022/11/30 14:28:20;;;;;;;33.88;16.73;;;;;;;;;;8186468;29;20063;-88
2022/11/30 14:32:38;;;;;;;29.58;14.48;;;;;;;;;;8233140;28;20054;-86
2022/11/30 14:36:47;;;;;;;29.52;15.07;;;;;;;;;;8276858;28;20112;-89
2022/11/30 14:40:54;;;;;;;26.13;15.57;;;;;;;;;;8294808;28;20046;-88
2022/11/30 14:44:58;;;;;;;42.95;15.70;;;;;;;;;;8278868;28;20073;-89
2022/11/30 14:49:14;;;;;;;27.05;10.80;;;;;;;;;;8275522;28;20049;-89
2022/11/30 14:53:33;;;;;;;41.20;17.20;;;;;;;;;;8278590;28;20057;-89
2022/11/30 14:58:00;;;;;;;181.65;50.47;;;;;;;;;;8264219;28;20135;-89
2022/11/30 15:02:12;;;;;;;31.40;13.93;;;;;;;;;;8289359;28;20131;-88
2022/11/30 15:06:34;;;;;;;37.58;15.20;;;;;;;;;;8287182;28;20493;-89
2022/11/30 15:10:42;;;;;;;31.73;13.50;;;;;;;;;;8279888;28;20103;-87
2022/11/30 15:15:14;;;;;;;30.10;12.95;;;;;;;;;;8289883;28;20045;-86
2022/11/30 15:19:22;;;;;;;38.65;18.52;;;;;;;;;;8281379;28;20046;-89
2022/11/30 15:23:27;;;;;;;38.72;18.10;;;;;;;;;;8284277;28;20137;-88
2022/11/30 15:27:30;;;;;;;72.90;25.63;;;;;;;;;;8294071;28;20087;-89
2022/11/30 15:31:36;;;;;;;99.53;39.30;;;;;;;;;;8267921;28;20060;-89
2022/11/30 15:35:51;;;;;;;33.45;16.83;;;;;;;;;;8286242;28;20046;-88
2022/11/30 15:40:07;;;;;;;55.92;22.88;;;;;;;;;;8285698;28;20053;-89
2022/11/30 15:44:38;;;;;;;68.63;28.23;;;;;;;;;;8277479;28;20050;-89
2022/11/30 15:48:47;;;;;;;50.28;19.67;;;;;;;;;;8290280;28;20053;-90
2022/11/30 15:53:04;;;;;;;30.17;14.57;;;;;;;;;;8288626;28;20569;-89
2022/11/30 15:57:23;;;;;;;37.25;17.83;;;;;;;;;;8278579;28;20052;-90
2022/11/30 16:01:30;;;;;;;25.35;12.32;;;;;;;;;;8274136;28;20050;-85
2022/11/30 16:06:03;;;;;;;23.13;12.18;;;;;;;;;;8269565;28;20181;-90
2022/11/30 16:10:15;;;;;;;31.33;15.30;;;;;;;;;;8276373;28;20046;-88
2022/11/30 16:14:21;;;;;;;37.47;19.42;;;;;;;;;;8279640;28;20379;-89
2022/11/30 16:18:29;;;;;;;41.25;18.38;;;;;;;;;;8275056;28;20053;-88
2022/11/30 16:22:42;;;;;;;27.85;13.90;;;;;;;;;;8285034;28;20054;-89
2022/11/30 16:27:03;;;;;;;36.08;15.85;;;;;;;;;;8292063;28;20054;-86
2022/11/30 16:31:21;;;;;;;18.25;9.82;;;;;;;;;;8272476;28;20057;-89
2022/11/30 16:35:37;;;;;;;22.58;11.15;;;;;;;;;;8258052;28;20054;-86
2022/11/30 16:39:48;;;;;;;21.10;10.15;;;;;;;;;;8281346;28;20081;-85
2022/11/30 16:43:56;;;;;;;15.05;8.27;;;;;;;;;;8292569;28;20050;-89
2022/11/30 16:48:18;;;;;;;14.65;7.75;;;;;;;;;;8292926;28;20045;-88
2022/11/30 16:52:27;;;;;;;56.13;27.35;;;;;;;;;;8291567;28;20045;-86
2022/11/30 16:56:40;;;;;;;84.03;34.05;;;;;;;;;;8284443;28;20042;-91
2022/11/30 17:00:47;;;;;;;12.57;5.38;;;;;;;;;;8289890;28;20046;-91
2022/11/30 17:04:53;;;;;;;27.48;13.10;;;;;;;;;;8297834;28;20046;-87
2022/11/30 17:08:56;;;;;;;453.13;142.18;;;;;;;;;;8274530;28;20050;-91
2022/11/30 17:12:58;;;;;;;38.47;17.25;;;;;;;;;;8281911;28;20100;-92
2022/11/30 17:17:01;;;;;;;177.75;45.55;;;;;;;;;;8271899;28;20124;-90
2022/11/30 17:21:10;;;;;;;24.38;12.38;;;;;;;;;;8285094;28;20081;-85
2022/11/30 17:25:16;;;;;;;40.42;21.05;;;;;;;;;;8282431;28;20057;-86
2022/11/30 17:29:19;;;;;;;119.30;31.73;;;;;;;;;;8290880;28;20086;-86
2022/11/30 17:33:25;;;;;;;108.05;27.58;;;;;;;;;;8277098;28;20049;-86
2022/11/30 17:37:29;;;;;;;75.85;24.20;;;;;;;;;;8283390;28;20046;-90
2022/11/30 17:41:32;;;;;;;26.58;13.57;;;;;;;;;;8284778;28;20054;-88
2022/11/30 17:45:39;;;;;;;77.57;29.65;;;;;;;;;;8288341;28;20123;-87
2022/11/30 17:49:42;;;;;;;123.28;40.97;;;;;;;;;;8292023;28;20497;-87
2022/11/30 17:53:47;;;;;;;27.40;13.57;;;;;;;;;;8286934;28;20038;-88
2022/11/30 17:57:50;;;;;;;110.53;30.92;;;;;;;;;;8289706;28;20440;-90
2022/11/30 18:01:53;;;;;;;63.35;23.88;;;;;;;;;;8284391;28;20054;-89
2022/11/30 18:06:01;;;;;;;132.48;40.55;;;;;;;;;;8284049;28;20048;-86
2022/11/30 18:10:06;;;;;;;37.17;18.80;;;;;;;;;;8282805;28;20062;-85
2022/11/30 18:14:11;;;;;;;44.72;20.33;;;;;;;;;;8288318;28;20054;-87
2022/11/30 18:18:14;;;;;;;74.45;27.80;;;;;;;;;;8288424;28;20163;-85
2022/11/30 18:22:18;;;;;;;45.03;22.85;;;;;;;;;;8291398;28;20108;-87
2022/11/30 18:26:25;;;;;;;22.15;10.65;;;;;;;;;;8292789;28;20097;-86
2022/11/30 18:30:27;;;;;;;278.77;65.93;;;;;;;;;;8286071;28;20049;-86
2022/11/30 18:34:31;;;;;;;368.85;114.53;;;;;;;;;;8295914;28;20073;-87
2022/11/30 18:38:34;;;;;;;236.23;69.05;;;;;;;;;;8290674;28;20445;-85
2022/11/30 18:42:40;;;;;;;180.45;54.08;;;;;;;;;;8283455;28;20057;-86
2022/11/30 18:46:43;;;;;;;88.55;32.80;;;;;;;;;;8292799;28;20452;-87
2022/11/30 18:50:46;;;;;;;106.95;37.42;;;;;;;;;;8291658;28;20061;-86
2022/11/30 18:54:49;;;;;;;31.92;16.08;;;;;;;;;;8290766;28;20046;-86
2022/11/30 18:58:56;;;;;;;254.02;86.43;;;;;;;;;;8283624;28;20490;-87
2022/11/30 19:03:00;;;;;;;32.72;14.52;;;;;;;;;;8269827;28;20043;-85
2022/11/30 19:07:04;;;;;;;68.70;24.70;;;;;;;;;;8291980;28;20046;-86
2022/11/30 19:11:09;;;;;;;22.52;11.25;;;;;;;;;;8261943;28;20395;-86
2022/11/30 19:15:13;;;;;;;22.95;13.00;;;;;;;;;;8281161;28;20371;-86
2022/11/30 19:19:17;;;;;;;30.63;15.70;;;;;;;;;;8288034;28;20043;-85
2022/11/30 19:23:20;;;;;;;96.05;30.73;;;;;;;;;;8289042;28;20049;-85
2022/11/30 19:27:24;;;;;;;117.85;40.13;;;;;;;;;;8266804;28;20062;-87
2022/11/30 19:31:29;;;;;;;33.25;16.58;;;;;;;;;;8285800;28;20071;-87
2022/11/30 19:35:33;;;;;;;38.65;17.20;;;;;;;;;;8272989;28;20453;-86
2022/11/30 19:39:37;;;;;;;32.60;16.23;;;;;;;;;;8290476;28;20066;-85
2022/11/30 19:43:42;;;;;;;76.30;30.83;;;;;;;;;;8285177;28;20096;-87
2022/11/30 19:47:46;;;;;;;28.25;14.43;;;;;;;;;;8285367;28;20609;-86
2022/11/30 19:51:54;;;;;;;28.05;14.13;;;;;;;;;;8279008;28;20046;-87
2022/11/30 19:56:10;;;;;;;44.28;18.50;;;;;;;;;;8286357;28;20073;-89
2022/11/30 20:00:19;;;;;;;21.35;9.95;;;;;;;;;;8273368;28;20050;-89
2022/11/30 20:04:33;;;;;;;21.02;11.70;;;;;;;;;;8280514;28;20067;-89
2022/11/30 20:08:39;;;;;;;49.90;21.27;;;;;;;;;;8277836;28;20549;-85
2022/11/30 20:12:44;;;;;;;60.58;28.27;;;;;;;;;;8288371;28;20536;-84
2022/11/30 20:16:51;;;;;;;60.20;27.83;;;;;;;;;;8276928;28;20065;-88
2022/11/30 20:20:58;;;;;;;133.68;47.20;;;;;;;;;;8265808;28;20038;-87
2022/11/30 20:25:01;;;;;;;79.05;30.02;;;;;;;;;;8277358;28;20056;-89
2022/11/30 20:29:07;;;;;;;40.20;18.30;;;;;;;;;;8289124;28;20057;-87
2022/11/30 20:33:10;;;;;;;56.88;20.50;;;;;;;;;;8292384;28;20060;-88
2022/11/30 20:37:24;;;;;;;39.58;19.85;;;;;;;;;;8295430;28;20061;-89
2022/11/30 20:41:28;;;;;;;44.63;20.83;;;;;;;;;;8291770;28;20581;-86
2022/11/30 20:45:35;;;;;;;61.28;30.42;;;;;;;;;;8278543;28;20453;-91
2022/11/30 20:49:42;;;;;;;55.92;26.58;;;;;;;;;;8297491;28;20104;-88
2022/11/30 20:53:48;;;;;;;42.67;17.83;;;;;;;;;;8296860;28;20050;-87
2022/11/30 20:57:53;;;;;;;37.72;16.27;;;;;;;;;;8297136;28;20405;-87
2022/11/30 21:01:57;;;;;;;23.67;11.60;;;;;;;;;;8289322;28;20042;-87
2022/11/30 21:06:01;;;;;;;24.80;12.65;;;;;;;;;;8296695;28;20448;-88
2022/11/30 21:10:06;;;;;;;26.65;13.70;;;;;;;;;;8296545;28;20093;-87
2022/11/30 21:14:09;;;;;;;35.70;18.90;;;;;;;;;;8295933;28;20076;-85
2022/11/30 21:18:12;;;;;;;27.67;13.98;;;;;;;;;;8295722;28;20500;-86
2022/11/30 21:22:15;;;;;;;293.73;63.05;;;;;;;;;;8294962;28;20440;-90
2022/11/30 21:26:20;;;;;;;191.80;41.35;;;;;;;;;;8294919;28;20093;-90
2022/11/30 21:30:23;;;;;;;60.20;20.85;;;;;;;;;;8295732;28;20125;-86
2022/11/30 21:34:26;;;;;;;38.88;19.10;;;;;;;;;;8296236;28;20116;-88
2022/11/30 21:38:29;;;;;;;61.42;20.42;;;;;;;;;;8296882;28;20413;-90
2022/11/30 21:42:33;;;;;;;48.08;20.08;;;;;;;;;;8296567;28;20048;-88
2022/11/30 21:46:36;;;;;;;53.47;20.05;;;;;;;;;;8296532;28;20054;-87
2022/11/30 21:50:39;;;;;;;344.75;108.93;;;;;;;;;;8282857;28;20058;-90
2022/11/30 21:54:42;;;;;;;104.10;38.22;;;;;;;;;;8295803;28;20109;-89
2022/11/30 21:58:48;;;;;;;45.90;19.13;;;;;;;;;;8289082;28;20046;-89
2022/11/30 22:02:51;;;;;;;52.78;21.02;;;;;;;;;;8296603;28;20053;-90
2022/11/30 22:06:54;;;;;;;45.35;21.05;;;;;;;;;;8279869;28;20097;-89
2022/11/30 22:11:01;;;;;;;35.13;16.00;;;;;;;;;;8295135;28;20046;-90
2022/11/30 22:15:06;;;;;;;33.78;15.43;;;;;;;;;;8295358;28;20073;-88
2022/11/30 22:19:10;;;;;;;24.60;12.45;;;;;;;;;;8284225;28;20060;-89
2022/11/30 22:23:12;;;;;;;25.20;11.65;;;;;;;;;;8296112;28;20050;-90
2022/11/30 22:27:15;;;;;;;25.42;11.10;;;;;;;;;;8301701;28;20084;-86
2022/11/30 22:31:22;;;;;;;23.80;12.27;;;;;;;;;;8302199;28;20042;-90
2022/11/30 22:35:24;;;;;;;28.35;13.90;;;;;;;;;;8302115;28;20046;-90
2022/11/30 22:39:27;;;;;;;36.13;14.93;;;;;;;;;;8308540;28;20489;-88
2022/11/30 22:43:30;;;;;;;48.92;16.77;;;;;;;;;;8309423;28;20041;-86
2022/11/30 22:47:34;;;;;;;29.85;12.90;;;;;;;;;;8301150;28;20177;-91
2022/11/30 22:51:38;;;;;;;55.58;19.33;;;;;;;;;;8296199;28;20120;-87
2022/11/30 22:55:40;;;;;;;42.45;15.95;;;;;;;;;;8300832;28;20076;-88
2022/11/30 22:59:43;;;;;;;32.67;13.30;;;;;;;;;;8300945;28;20449;-88
2022/11/30 23:03:49;;;;;;;49.67;17.50;;;;;;;;;;8300628;28;20053;-87
2022/11/30 23:07:51;;;;;;;38.95;16.08;;;;;;;;;;8300600;28;20045;-84
2022/11/30 23:11:54;;;;;;;36.45;16.13;;;;;;;;;;8300679;28;20141;-89
2022/11/30 23:16:00;;;;;;;33.67;14.73;;;;;;;;;;8300884;28;20050;-84
2022/11/30 23:20:04;;;;;;;76.38;28.15;;;;;;;;;;8300463;28;20054;-89
2022/11/30 23:24:10;;;;;;;32.97;14.43;;;;;;;;;;8299884;28;20054;-86
2022/11/30 23:28:13;;;;;;;26.80;12.95;;;;;;;;;;8299125;28;20058;-87
2022/11/30 23:32:15;;;;;;;25.63;12.20;;;;;;;;;;8299023;28;20049;-90
2022/11/30 23:36:21;;;;;;;24.25;12.38;;;;;;;;;;8299012;28;20181;-90
2022/11/30 23:40:24;;;;;;;25.65;12.57;;;;;;;;;;8289954;28;20081;-86
2022/11/30 23:44:27;;;;;;;25.90;12.80;;;;;;;;;;8298331;28;20045;-90
2022/11/30 23:48:29;;;;;;;27.77;13.25;;;;;;;;;;8298408;28;20038;-90
2022/11/30 23:52:34;;;;;;;26.85;12.40;;;;;;;;;;8294344;28;20058;-89
2022/11/30 23:56:37;;;;;;;26.15;11.73;;;;;;;;;;8293215;28;20656;-86
